CheckWX is a tool to help pilots better visualize weather data.  It is not intended as a substitute for an official pre-flight weather briefing.

22:47:10 UTC

KDAL METAR
Dallas Love Field Airport
Dallas, Texas, USA
Current

54 mins ago

KDAL 012153Z 13014G21KT 10SM FEW210 SCT250 BKN300 22/10 A2989 RMK AO2 SLP117 T02170100
Observed
Apr-1 @ 21:53 UTC
Wind
  • 130° at 14 KTS
  • Gusting to 21 KTS
Visibility
10 SM
Flight Rules
VFR
Cloud Levels
  • Few at 21,000' AGL
  • Scattered at 25,000' AGL
  • Broken at 30,000' AGL
Temperature
22°C / 72°F
Dewpoint
10°C / 50°F
Humidity
47%
Altimeter
29.89" Hg
Pressure
1012.22 hPa
Previous

2 hours ago

KDAL 012053Z 16011G19KT 10SM FEW210 SCT250 BKN300 22/09 A2991 RMK AO2 SLP124 T02170094 58030
Observed
Apr-1 @ 20:53 UTC
Wind
  • 160° at 11 KTS
  • Gusting to 19 KTS
Visibility
10 SM
Flight Rules
VFR
Cloud Levels
  • Few at 21,000' AGL
  • Scattered at 25,000' AGL
  • Broken at 30,000' AGL
Temperature
22°C / 72°F
Dewpoint
C / 48°F
Humidity
44%
Altimeter
29.91" Hg
Pressure
1012.92 hPa
Previous

3 hours ago

KDAL 011953Z 15012KT 10SM FEW180 FEW210 BKN250 21/09 A2994 RMK AO2 SLP135 T02110094
Observed
Apr-1 @ 19:53 UTC
Wind
  • 150° at 12 KTS
Visibility
10 SM
Flight Rules
VFR
Cloud Levels
  • Few at 18,000' AGL
  • Few at 21,000' AGL
  • Broken at 25,000' AGL
Temperature
21°C / 70°F
Dewpoint
C / 48°F
Humidity
46%
Altimeter
29.94" Hg
Pressure
1013.92 hPa